createdAt,value
2015-03-04T18:53:46.145Z,100299
2015-03-04T18:54:04.171Z,100311
2015-03-04T18:54:21.840Z,100297
2015-03-04T18:54:40.171Z,100286
2015-03-04T18:54:57.854Z,100294
2015-03-04T18:55:15.531Z,100308
2015-03-04T18:55:33.867Z,100306
2015-03-04T18:55:52.201Z,100303
2015-03-04T18:56:10.548Z,100294
2015-03-04T18:56:29.003Z,100306
2015-03-04T18:56:47.338Z,100309
2015-03-04T18:57:05.673Z,100311
2015-03-04T18:57:24.005Z,100309
2015-03-04T18:57:41.689Z,100311
2015-03-04T18:57:59.372Z,100317
2015-03-04T18:58:17.707Z,100323
2015-03-04T18:58:36.042Z,100320
2015-03-04T18:58:54.371Z,100314
2015-03-04T18:59:12.702Z,100335
2015-03-04T18:59:30.377Z,100317
2015-03-04T18:59:48.054Z,100312
2015-03-04T19:00:06.385Z,100314
2015-03-04T19:00:24.717Z,100314
2015-03-04T19:00:43.050Z,100312
2015-03-04T19:01:00.730Z,100312
2015-03-04T19:01:18.408Z,100314
2015-03-04T19:01:36.748Z,100314
2015-03-04T19:01:55.080Z,100320
2015-03-04T19:02:13.409Z,100326
2015-03-04T19:02:31.085Z,100314
2015-03-04T19:02:49.413Z,100320
2015-03-04T19:03:07.738Z,100323
2015-03-04T19:03:26.070Z,100314
2015-03-04T19:03:43.096Z,100323
2015-03-04T19:04:01.427Z,100320
2015-03-04T19:04:19.757Z,100314
2015-03-04T19:04:38.092Z,100320
2015-03-04T19:04:56.424Z,100323
2015-03-04T19:05:14.760Z,100314
2015-03-04T19:05:33.091Z,100314
2015-03-04T19:05:50.768Z,100317
2015-03-04T19:06:09.098Z,100311
2015-03-04T19:06:26.910Z,100320
2015-03-04T19:06:44.431Z,100317
2015-03-04T19:07:02.764Z,100335
2015-03-04T19:07:20.439Z,100326
2015-03-04T19:07:38.778Z,100320
2015-03-04T19:07:57.105Z,100326
2015-03-04T19:08:15.442Z,100326
2015-03-04T19:08:33.772Z,100323
2015-03-04T19:08:52.100Z,100326
2015-03-04T19:09:10.431Z,100317
2015-03-04T19:09:28.758Z,100323
2015-03-04T19:09:47.084Z,100320
2015-03-04T19:10:05.415Z,100326
2015-03-04T19:10:23.750Z,100323
2015-03-04T19:10:42.084Z,100323
2015-03-04T19:11:00.410Z,100317
2015-03-04T19:11:18.743Z,100323
2015-03-04T19:11:37.071Z,100326
2015-03-04T19:11:55.400Z,100332
2015-03-04T19:12:13.730Z,100320
2015-03-04T19:12:30.751Z,100326
2015-03-04T19:12:49.077Z,100332
2015-03-04T19:13:07.405Z,100323
2015-03-04T19:13:25.740Z,100323
2015-03-04T19:13:44.072Z,100314
2015-03-04T19:14:02.408Z,100332
2015-03-04T19:14:20.734Z,100320
2015-03-04T19:14:39.063Z,100337
2015-03-04T19:14:57.392Z,100323
2015-03-04T19:15:15.721Z,100320
2015-03-04T19:15:34.049Z,100323
2015-03-04T19:15:52.379Z,100323
2015-03-04T19:16:10.838Z,100326
2015-03-04T19:16:28.511Z,100335
2015-03-04T19:16:46.843Z,100323
2015-03-04T19:17:05.170Z,100326
2015-03-04T19:17:23.500Z,100317
2015-03-04T19:17:41.823Z,100326
2015-03-04T19:18:00.155Z,100320
2015-03-04T19:18:18.482Z,100320
2015-03-04T19:18:36.811Z,100335
2015-03-04T19:18:55.136Z,100326
2015-03-04T19:19:12.804Z,100317
2015-03-04T19:19:31.137Z,100337
2015-03-04T19:19:49.468Z,100337
2015-03-04T19:20:07.794Z,100340
2015-03-04T19:20:26.131Z,100332
2015-03-04T19:20:44.459Z,100332
2015-03-04T19:21:02.790Z,100346
2015-03-04T19:21:21.121Z,100335
2015-03-04T19:21:38.805Z,100337
2015-03-04T19:21:56.478Z,100343
2015-03-04T19:22:14.805Z,100340
2015-03-04T19:22:32.485Z,100340
2015-03-04T19:22:50.164Z,100343
2015-03-04T19:23:08.498Z,100343
2015-03-04T19:23:26.679Z,100337
2015-03-04T19:23:44.350Z,100335
2015-03-04T19:24:02.028Z,100337
2015-03-04T19:24:20.492Z,100332
2015-03-04T19:24:38.170Z,100340
2015-03-04T19:24:56.499Z,100335
2015-03-04T19:25:14.833Z,100326
2015-03-04T19:25:33.158Z,100323
2015-03-04T19:25:50.970Z,100323
2015-03-04T19:26:09.299Z,100332
2015-03-04T19:26:27.632Z,100323
2015-03-04T19:26:45.955Z,100340
2015-03-04T19:27:03.630Z,100335
2015-03-04T19:27:21.962Z,100335
2015-03-04T19:27:40.289Z,100317
2015-03-04T19:27:58.613Z,100335
2015-03-04T19:28:16.295Z,100326
2015-03-04T19:28:34.627Z,100337
2015-03-04T19:28:52.963Z,100337
2015-03-04T19:29:11.288Z,100340
2015-03-04T19:29:29.617Z,100335
2015-03-04T19:29:47.945Z,100346
2015-03-04T19:30:05.623Z,100335
2015-03-04T19:30:23.957Z,100332
2015-03-04T19:30:42.282Z,100335
2015-03-04T19:31:00.608Z,100335
2015-03-04T19:31:18.939Z,100337
2015-03-04T19:31:37.275Z,100332
2015-03-04T19:31:55.603Z,100335
2015-03-04T19:32:13.928Z,100343
2015-03-04T19:32:32.259Z,100337
2015-03-04T19:32:50.591Z,100343
2015-03-04T19:33:08.915Z,100343
2015-03-04T19:33:27.248Z,100335
2015-03-04T19:33:45.575Z,100343
2015-03-04T19:34:03.902Z,100337
2015-03-04T19:34:22.231Z,100340
2015-03-04T19:34:40.562Z,100337
2015-03-04T19:34:58.890Z,100332
2015-03-04T19:35:17.220Z,100343
2015-03-04T19:35:35.548Z,100335
2015-03-04T19:35:53.228Z,100340
2015-03-04T19:36:11.555Z,100343
2015-03-04T19:36:29.229Z,100326
2015-03-04T19:36:47.560Z,100343
2015-03-04T19:37:05.892Z,100337
2015-03-04T19:37:24.229Z,100337
2015-03-04T19:37:41.913Z,100346
2015-03-04T19:38:00.238Z,100343
2015-03-04T19:38:18.568Z,100351
2015-03-04T19:38:36.896Z,100348
2015-03-04T19:38:55.225Z,100346
2015-03-04T19:39:13.555Z,100340
2015-03-04T19:39:31.889Z,100348
2015-03-04T19:39:50.248Z,100340
2015-03-04T19:40:08.553Z,100354
2015-03-04T19:40:26.886Z,100348
2015-03-04T19:40:44.558Z,100348
2015-03-04T19:41:02.235Z,100346
2015-03-04T19:41:20.569Z,100346
2015-03-04T19:41:38.244Z,100346
2015-03-04T19:41:56.577Z,100346
2015-03-04T19:42:14.381Z,100343
2015-03-04T19:42:32.712Z,100348
2015-03-04T19:42:51.038Z,100346
2015-03-04T19:43:09.365Z,100343
2015-03-04T19:43:26.387Z,100348
2015-03-04T19:43:44.054Z,100346
2015-03-04T19:44:02.383Z,100340
2015-03-04T19:44:20.056Z,100348
2015-03-04T19:44:38.387Z,100360
2015-03-04T19:44:56.718Z,100351
2015-03-04T19:45:15.054Z,100357
2015-03-04T19:45:33.379Z,100360
2015-03-04T19:45:51.709Z,100360
2015-03-04T19:46:10.038Z,100363
2015-03-04T19:46:27.853Z,100366
2015-03-04T19:46:46.181Z,100357
2015-03-04T19:47:04.510Z,100363
2015-03-04T19:47:22.836Z,100357
2015-03-04T19:47:41.166Z,100357
2015-03-04T19:47:59.495Z,100360
2015-03-04T19:48:17.823Z,100357
2015-03-04T19:48:36.154Z,100351
2015-03-04T19:48:53.838Z,100354
2015-03-04T19:49:12.163Z,100354
2015-03-04T19:49:30.488Z,100357
2015-03-04T19:49:48.820Z,100363
2015-03-04T19:50:07.147Z,100354
2015-03-04T19:50:25.482Z,100357
2015-03-04T19:50:43.808Z,100363
2015-03-04T19:51:02.141Z,100354
2015-03-04T19:51:20.473Z,100357
2015-03-04T19:51:38.809Z,100363
2015-03-04T19:51:57.133Z,100360
2015-03-04T19:52:15.465Z,100357
2015-03-04T19:52:33.149Z,100360
2015-03-04T19:52:51.478Z,100369
2015-03-04T19:53:09.148Z,100369
2015-03-04T19:53:26.821Z,100366
2015-03-04T19:53:44.493Z,100360
2015-03-04T19:54:02.174Z,100363
2015-03-04T19:54:20.501Z,100363
2015-03-04T19:54:38.829Z,100366
2015-03-04T19:54:57.159Z,100363
2015-03-04T19:55:15.491Z,100357
2015-03-04T19:55:33.825Z,100363
2015-03-04T19:55:52.152Z,100357
2015-03-04T19:56:10.486Z,100366
2015-03-04T19:56:28.818Z,100360
2015-03-04T19:56:47.149Z,100360
2015-03-04T19:57:05.483Z,100360
2015-03-04T19:57:23.943Z,100357
2015-03-04T19:57:42.274Z,100363
2015-03-04T19:58:00.606Z,100360
2015-03-04T19:58:18.934Z,100363
2015-03-04T19:58:37.265Z,100369
2015-03-04T19:58:55.593Z,100366
2015-03-04T19:59:13.922Z,100366
2015-03-04T19:59:32.268Z,100372
2015-03-04T19:59:50.593Z,100372
2015-03-04T20:00:08.923Z,100363
2015-03-04T20:00:27.270Z,100369
2015-03-04T20:00:44.947Z,100363
2015-03-04T20:01:03.272Z,100372
2015-03-04T20:01:21.735Z,100369
2015-03-04T20:01:39.407Z,100366
2015-03-04T20:01:57.735Z,100369
2015-03-04T20:02:16.064Z,100366
2015-03-04T20:02:34.399Z,100366
2015-03-04T20:02:52.727Z,100372
2015-03-04T20:03:10.409Z,100369
2015-03-04T20:03:28.739Z,100366
2015-03-04T20:03:47.068Z,100360
2015-03-04T20:04:05.395Z,100363
2015-03-04T20:04:23.854Z,100372
2015-03-04T20:04:42.186Z,100369
2015-03-04T20:05:00.516Z,100363
2015-03-04T20:05:18.851Z,100372
2015-03-04T20:05:37.173Z,100369
2015-03-04T20:05:54.846Z,100360
2015-03-04T20:06:13.175Z,100369
2015-03-04T20:06:30.851Z,100369
2015-03-04T20:06:49.178Z,100369
2015-03-04T20:07:07.512Z,100377
2015-03-04T20:07:25.837Z,100377
2015-03-04T20:07:44.168Z,100386
2015-03-04T20:08:02.502Z,100372
2015-03-04T20:08:20.833Z,100372
2015-03-04T20:08:39.164Z,100380
2015-03-04T20:08:57.490Z,100369
2015-03-04T20:09:15.819Z,100372
2015-03-04T20:09:34.151Z,100372
2015-03-04T20:09:52.480Z,100377
2015-03-04T20:10:10.806Z,100372
2015-03-04T20:10:29.139Z,100372
2015-03-04T20:10:47.468Z,100369
2015-03-04T20:11:05.152Z,100372
2015-03-04T20:11:23.480Z,100369
2015-03-04T20:11:41.806Z,100372
2015-03-04T20:11:59.484Z,100363
2015-03-04T20:12:17.814Z,100369
2015-03-04T20:12:35.486Z,100363
2015-03-04T20:12:53.813Z,100372
2015-03-04T20:13:12.142Z,100363
2015-03-04T20:13:30.475Z,100380
2015-03-04T20:13:48.806Z,100369
2015-03-04T20:14:07.136Z,100369
2015-03-04T20:14:25.466Z,100369
2015-03-04T20:14:43.142Z,100377
2015-03-04T20:15:00.944Z,100380
2015-03-04T20:15:17.963Z,100377
2015-03-04T20:15:34.995Z,100380
2015-03-04T20:15:53.318Z,100377
2015-03-04T20:16:11.651Z,100369
2015-03-04T20:16:29.981Z,100386
2015-03-04T20:16:48.309Z,100377
2015-03-04T20:17:06.639Z,100389
2015-03-04T20:17:24.966Z,100377
2015-03-04T20:17:43.298Z,100375
2015-03-04T20:18:00.975Z,100372
2015-03-04T20:18:19.303Z,100380
2015-03-04T20:18:37.634Z,100377
2015-03-04T20:18:55.962Z,100369
2015-03-04T20:19:14.286Z,100377
2015-03-04T20:19:32.750Z,100377
2015-03-04T20:19:51.079Z,100377
2015-03-04T20:20:08.757Z,100372
2015-03-04T20:20:27.082Z,100377
2015-03-04T20:20:45.415Z,100383
2015-03-04T20:21:03.745Z,100377
2015-03-04T20:21:22.073Z,100386
2015-03-04T20:21:40.403Z,100383
2015-03-04T20:21:58.730Z,100392
2015-03-04T20:22:17.193Z,100386
2015-03-04T20:22:35.531Z,100392
2015-03-04T20:22:53.213Z,100380
2015-03-04T20:23:11.542Z,100389
2015-03-04T20:23:29.878Z,100377
2015-03-04T20:23:48.205Z,100386
2015-03-04T20:24:06.536Z,100392
2015-03-04T20:24:24.868Z,100380
2015-03-04T20:24:42.567Z,100383
2015-03-04T20:25:00.877Z,100377
2015-03-04T20:25:18.551Z,100389
2015-03-04T20:25:36.885Z,100392
2015-03-04T20:25:55.216Z,100392
2015-03-04T20:26:13.393Z,100392
2015-03-04T20:26:31.727Z,100386
2015-03-04T20:26:50.054Z,100395
2015-03-04T20:27:08.385Z,100395
2015-03-04T20:27:26.064Z,100392
2015-03-04T20:27:43.738Z,100386
2015-03-04T20:28:02.066Z,100392
2015-03-04T20:28:20.394Z,100398
2015-03-04T20:28:38.726Z,100398
2015-03-04T20:28:57.056Z,100395
2015-03-04T20:29:15.387Z,100395
2015-03-04T20:29:33.717Z,100401
2015-03-04T20:29:51.393Z,100383
2015-03-04T20:30:09.720Z,100398
2015-03-04T20:30:28.049Z,100398
2015-03-04T20:30:46.375Z,100406
2015-03-04T20:31:04.699Z,100412
2015-03-04T20:31:22.377Z,100415
2015-03-04T20:31:40.711Z,100409
2015-03-04T20:31:59.041Z,100412
2015-03-04T20:32:17.373Z,100412
2015-03-04T20:32:35.699Z,100415
2015-03-04T20:32:54.037Z,100418
2015-03-04T20:33:12.357Z,100415
2015-03-04T20:33:30.036Z,100404
2015-03-04T20:33:47.710Z,100412
2015-03-04T20:34:05.382Z,100418
2015-03-04T20:34:23.715Z,100421
2015-03-04T20:34:42.047Z,100415
2015-03-04T20:35:00.373Z,100409
2015-03-04T20:35:18.176Z,100412
2015-03-04T20:35:36.351Z,100421
2015-03-04T20:35:54.030Z,100412
2015-03-04T20:36:12.202Z,100401
2015-03-04T20:36:30.534Z,100412
2015-03-04T20:36:48.867Z,100406
2015-03-04T20:37:07.196Z,100398
2015-03-04T20:37:25.524Z,100398
2015-03-04T20:37:43.197Z,100404
2015-03-04T20:38:01.658Z,100406
2015-03-04T20:38:19.988Z,100398
2015-03-04T20:38:38.322Z,100412
2015-03-04T20:38:56.652Z,100412
2015-03-04T20:39:14.984Z,100398
2015-03-04T20:39:33.330Z,100404
2015-03-04T20:39:51.657Z,100406
2015-03-04T20:40:09.988Z,100398
2015-03-04T20:40:27.674Z,100401
2015-03-04T20:40:45.348Z,100404
2015-03-04T20:41:03.681Z,100406
2015-03-04T20:41:21.353Z,100409
2015-03-04T20:41:39.688Z,100412
2015-03-04T20:41:57.861Z,100404
2015-03-04T20:42:15.022Z,100415
2015-03-04T20:42:33.356Z,100415
2015-03-04T20:42:50.375Z,100415
2015-03-04T20:43:08.049Z,100418
2015-03-04T20:43:25.063Z,100415
2015-03-04T20:43:43.407Z,100415
2015-03-04T20:44:01.075Z,100430
2015-03-04T20:44:19.406Z,100415
2015-03-04T20:44:37.751Z,100412
2015-03-04T20:44:56.076Z,100421
2015-03-04T20:45:13.883Z,100418
2015-03-04T20:45:31.565Z,100424
2015-03-04T20:45:49.890Z,100427
2015-03-04T20:46:08.218Z,100421
2015-03-04T20:46:26.550Z,100424
2015-03-04T20:46:44.224Z,100415
2015-03-04T20:47:02.553Z,100404
2015-03-04T20:47:20.888Z,100427
2015-03-04T20:47:39.214Z,100415
2015-03-04T20:47:57.546Z,100418
2015-03-04T20:48:15.878Z,100430
2015-03-04T20:48:32.903Z,100412
2015-03-04T20:48:50.578Z,100418
2015-03-04T20:49:08.910Z,100424
2015-03-04T20:49:27.253Z,100427
2015-03-04T20:49:45.322Z,100430
2015-03-04T20:50:03.845Z,100427
2015-03-04T20:50:22.343Z,100424
2015-03-04T20:50:40.101Z,100427
2015-03-04T20:50:58.415Z,100430
2015-03-04T20:51:16.772Z,100427
2015-03-04T20:51:35.108Z,100435
2015-03-04T20:51:52.814Z,100430
2015-03-04T20:52:11.146Z,100435
2015-03-04T20:52:28.820Z,100435
2015-03-04T20:52:46.506Z,100430
2015-03-04T20:53:04.189Z,100441
2015-03-04T20:53:22.520Z,100433
2015-03-04T20:53:40.854Z,100435
2015-03-04T20:53:59.183Z,100430
2015-03-04T20:54:17.514Z,100438
2015-03-04T20:54:35.843Z,100435
2015-03-04T20:54:53.519Z,100444
2015-03-04T20:55:11.236Z,100444
2015-03-04T20:55:29.565Z,100435
2015-03-04T20:55:47.898Z,100438
2015-03-04T20:56:05.574Z,100435
2015-03-04T20:56:23.249Z,100430
2015-03-04T20:56:41.579Z,100435
2015-03-04T20:56:59.916Z,100430
2015-03-04T20:57:18.246Z,100444
2015-03-04T20:57:36.579Z,100430
2015-03-04T20:57:54.913Z,100444
2015-03-04T20:58:13.241Z,100430
2015-03-04T20:58:31.569Z,100430
2015-03-04T20:58:49.900Z,100438
2015-03-04T20:59:08.233Z,100435
2015-03-04T20:59:26.568Z,100441
2015-03-04T20:59:44.749Z,100447
2015-03-04T21:00:02.925Z,100444
2015-03-04T21:00:21.262Z,100441
2015-03-04T21:00:39.583Z,100456
2015-03-04T21:00:58.046Z,100447
2015-03-04T21:01:15.724Z,100450
2015-03-04T21:01:33.393Z,100444
2015-03-04T21:01:51.068Z,100447
2015-03-04T21:02:09.405Z,100441
2015-03-04T21:02:27.734Z,100441
2015-03-04T21:02:46.055Z,100444
2015-03-04T21:03:04.379Z,100447
2015-03-04T21:03:22.052Z,100447
2015-03-04T21:03:40.385Z,100444
2015-03-04T21:03:58.061Z,100447
2015-03-04T21:04:16.393Z,100444
2015-03-04T21:04:34.722Z,100447
2015-03-04T21:04:53.055Z,100450
2015-03-04T21:05:11.386Z,100447
2015-03-04T21:05:29.711Z,100441
2015-03-04T21:05:48.178Z,100438
2015-03-04T21:06:05.200Z,100441
2015-03-04T21:06:23.532Z,100444
2015-03-04T21:06:41.864Z,100450
2015-03-04T21:07:00.196Z,100441
2015-03-04T21:07:18.525Z,100447
2015-03-04T21:07:36.860Z,100441
2015-03-04T21:07:53.885Z,100450
2015-03-04T21:08:12.217Z,100441
2015-03-04T21:08:30.550Z,100450
2015-03-04T21:08:48.882Z,100447
2015-03-04T21:09:07.216Z,100447
2015-03-04T21:09:25.543Z,100453
2015-03-04T21:09:43.879Z,100447
2015-03-04T21:10:01.561Z,100450
2015-03-04T21:10:19.885Z,100441
2015-03-04T21:10:38.216Z,100444
2015-03-04T21:10:55.894Z,100441
2015-03-04T21:11:14.224Z,100450
2015-03-04T21:11:31.904Z,100438
2015-03-04T21:11:50.239Z,100435
2015-03-04T21:12:08.566Z,100444
2015-03-04T21:12:26.250Z,100433
2015-03-04T21:12:44.578Z,100453
2015-03-04T21:13:02.909Z,100447
2015-03-04T21:13:20.577Z,100453
2015-03-04T21:13:38.908Z,100447
2015-03-04T21:13:57.253Z,100444
2015-03-04T21:14:15.570Z,100450
2015-03-04T21:14:33.899Z,100462
2015-03-04T21:14:51.581Z,100459
2015-03-04T21:15:09.911Z,100453
2015-03-04T21:15:27.586Z,100453
2015-03-04T21:15:45.919Z,100456
2015-03-04T21:16:04.243Z,100456
2015-03-04T21:16:21.924Z,100462
2015-03-04T21:16:40.254Z,100456
2015-03-04T21:16:58.579Z,100459
2015-03-04T21:17:16.913Z,100459
2015-03-04T21:17:34.713Z,100467
2015-03-04T21:17:53.043Z,100467
2015-03-04T21:18:11.381Z,100462
2015-03-04T21:18:29.700Z,100467
2015-03-04T21:18:48.027Z,100459
2015-03-04T21:19:06.361Z,100459
2015-03-04T21:19:24.684Z,100453
2015-03-04T21:19:42.356Z,100462
2015-03-04T21:20:00.686Z,100456
2015-03-04T21:20:18.359Z,100467
2015-03-04T21:20:36.718Z,100462
2015-03-04T21:20:55.051Z,100462
2015-03-04T21:21:12.731Z,100470
2015-03-04T21:21:31.071Z,100470
2015-03-04T21:21:49.394Z,100462
2015-03-04T21:22:07.720Z,100476
2015-03-04T21:22:26.031Z,100478
2015-03-04T21:22:44.366Z,100470
2015-03-04T21:23:02.694Z,100470
2015-03-04T21:23:21.027Z,100473
2015-03-04T21:23:39.495Z,100473
2015-03-04T21:23:57.828Z,100473
2015-03-04T21:24:16.158Z,100481
2015-03-04T21:24:34.487Z,100478
2015-03-04T21:24:52.161Z,100467
2015-03-04T21:25:10.496Z,100476
2015-03-04T21:25:28.826Z,100470
2015-03-04T21:25:47.174Z,100473
2015-03-04T21:26:04.845Z,100478
2015-03-04T21:26:23.175Z,100473
2015-03-04T21:26:41.502Z,100473
2015-03-04T21:26:59.833Z,100481
2015-03-04T21:27:17.511Z,100476
2015-03-04T21:27:35.842Z,100481
2015-03-04T21:27:54.180Z,100470
2015-03-04T21:28:11.863Z,100476
2015-03-04T21:28:30.186Z,100478
2015-03-04T21:28:48.517Z,100470
2015-03-04T21:29:06.879Z,100481
2015-03-04T21:29:25.245Z,100484
2015-03-04T21:29:42.276Z,100478
2015-03-04T21:30:00.616Z,100487
2015-03-04T21:30:18.950Z,100487
2015-03-04T21:30:37.264Z,100490
2015-03-04T21:30:55.592Z,100490
2015-03-04T21:31:13.261Z,100484
2015-03-04T21:31:30.934Z,100495
2015-03-04T21:31:49.266Z,100487
2015-03-04T21:32:06.291Z,100481
2015-03-04T21:32:24.619Z,100481
2015-03-04T21:32:42.952Z,100498
2015-03-04T21:33:01.289Z,100498
2015-03-04T21:33:19.620Z,100490
2015-03-04T21:33:37.944Z,100495
2015-03-04T21:33:55.621Z,100492
2015-03-04T21:34:13.297Z,100487
2015-03-04T21:34:30.313Z,100498
2015-03-04T21:34:47.340Z,100498
2015-03-04T21:35:05.665Z,100490
2015-03-04T21:35:23.998Z,100507
2015-03-04T21:35:42.331Z,100495
2015-03-04T21:36:00.497Z,100501
2015-03-04T21:36:18.177Z,100490
2015-03-04T21:36:36.509Z,100495
2015-03-04T21:36:54.842Z,100495
2015-03-04T21:37:13.180Z,100495
2015-03-04T21:37:31.504Z,100484
2015-03-04T21:37:49.850Z,100492
2015-03-04T21:38:08.168Z,100498
2015-03-04T21:38:26.492Z,100495
2015-03-04T21:38:44.169Z,100490
2015-03-04T21:39:01.835Z,100504
2015-03-04T21:39:20.166Z,100504
2015-03-04T21:39:36.530Z,100501
2015-03-04T21:39:54.863Z,100507
2015-03-04T21:40:13.195Z,100504
2015-03-04T21:40:30.872Z,100513
2015-03-04T21:40:47.899Z,100510
2015-03-04T21:41:06.205Z,100501
2015-03-04T21:41:24.537Z,100507
2015-03-04T21:41:43.005Z,100507
2015-03-04T21:42:01.334Z,100498
2015-03-04T21:42:19.664Z,100492
2015-03-04T21:42:37.343Z,100507
2015-03-04T21:42:55.674Z,100507
2015-03-04T21:43:14.000Z,100492
2015-03-04T21:43:32.464Z,100510
2015-03-04T21:43:50.142Z,100492
2015-03-04T21:44:07.816Z,100490
2015-03-04T21:44:25.480Z,100507
2015-03-04T21:44:43.813Z,100492
2015-03-04T21:45:02.149Z,100498
2015-03-04T21:45:20.478Z,100498
2015-03-04T21:45:38.805Z,100501
2015-03-04T21:45:56.980Z,100498
2015-03-04T21:46:15.305Z,100498
2015-03-04T21:46:33.634Z,100498
2015-03-04T21:46:51.324Z,100495
2015-03-04T21:47:08.998Z,100507
2015-03-04T21:47:27.329Z,100501
2015-03-04T21:47:45.661Z,100504
2015-03-04T21:48:03.341Z,100498
2015-03-04T21:48:21.665Z,100501
2015-03-04T21:48:39.342Z,100495
2015-03-04T21:48:57.671Z,100501
2015-03-04T21:49:15.344Z,100504
2015-03-04T21:49:33.676Z,100507
2015-03-04T21:49:52.007Z,100510
2015-03-04T21:50:10.341Z,100501
2015-03-04T21:50:28.669Z,100513
2015-03-04T21:50:46.336Z,100513
2015-03-04T21:51:04.665Z,100522
2015-03-04T21:51:22.996Z,100513
2015-03-04T21:51:41.326Z,100507
2015-03-04T21:51:59.657Z,100513
2015-03-04T21:52:18.016Z,100507
2015-03-04T21:52:35.683Z,100501
2015-03-04T21:52:54.015Z,100507
2015-03-04T21:53:12.345Z,100507
2015-03-04T21:53:30.679Z,100510
2015-03-04T21:53:48.352Z,100501
2015-03-04T21:54:06.687Z,100522
2015-03-04T21:54:25.013Z,100507
2015-03-04T21:54:43.479Z,100501
2015-03-04T21:55:01.807Z,100501
2015-03-04T21:55:20.141Z,100516
2015-03-04T21:55:38.469Z,100507
2015-03-04T21:55:56.801Z,100507
2015-03-04T21:56:15.137Z,100504
2015-03-04T21:56:33.463Z,100501
2015-03-04T21:56:51.796Z,100513
2015-03-04T21:57:09.465Z,100516
2015-03-04T21:57:27.794Z,100510
2015-03-04T21:57:45.474Z,100507
2015-03-04T21:58:03.806Z,100522
2015-03-04T21:58:22.136Z,100522
2015-03-04T21:58:40.467Z,100522
2015-03-04T21:58:58.804Z,100522
2015-03-04T21:59:17.119Z,100519
2015-03-04T21:59:35.449Z,100516
2015-03-04T21:59:53.128Z,100519
2015-03-04T22:00:11.457Z,100522
2015-03-04T22:00:29.784Z,100522
2015-03-04T22:00:48.119Z,100522
2015-03-04T22:01:06.451Z,100510
2015-03-04T22:01:24.778Z,100501
2015-03-04T22:01:43.101Z,100519
2015-03-04T22:02:01.433Z,100519
2015-03-04T22:02:19.762Z,100522
2015-03-04T22:02:38.089Z,100530
2015-03-04T22:02:55.771Z,100524
2015-03-04T22:03:13.448Z,100522
2015-03-04T22:03:31.780Z,100533
2015-03-04T22:03:50.110Z,100519
2015-03-04T22:04:08.437Z,100519
2015-03-04T22:04:26.766Z,100519
2015-03-04T22:04:45.091Z,100524
2015-03-04T22:05:03.422Z,100522
2015-03-04T22:05:21.752Z,100516
2015-03-04T22:05:40.088Z,100527
2015-03-04T22:05:58.420Z,100533
2015-03-04T22:06:16.094Z,100527
2015-03-04T22:06:34.426Z,100542
2015-03-04T22:06:52.097Z,100530
2015-03-04T22:07:10.426Z,100536
2015-03-04T22:07:28.760Z,100530
2015-03-04T22:07:46.433Z,100542
2015-03-04T22:08:04.766Z,100524
2015-03-04T22:08:23.095Z,100536
2015-03-04T22:08:41.427Z,100539
2015-03-04T22:08:59.760Z,100530
2015-03-04T22:09:18.086Z,100542
2015-03-04T22:09:36.415Z,100542
2015-03-04T22:09:54.752Z,100536
2015-03-04T22:10:13.226Z,100542
2015-03-04T22:10:31.549Z,100536
2015-03-04T22:10:49.880Z,100542
2015-03-04T22:11:08.209Z,100545
2015-03-04T22:11:26.536Z,100542
2015-03-04T22:11:44.871Z,100548
2015-03-04T22:12:03.198Z,100542
2015-03-04T22:12:21.530Z,100542
2015-03-04T22:12:39.863Z,100545
2015-03-04T22:12:58.194Z,100551
2015-03-04T22:13:16.534Z,100553
2015-03-04T22:13:34.855Z,100548
2015-03-04T22:13:53.184Z,100556
2015-03-04T22:14:10.211Z,100548
2015-03-04T22:14:27.880Z,100551
2015-03-04T22:14:45.559Z,100551
2015-03-04T22:15:03.373Z,100562
2015-03-04T22:15:21.705Z,100562
2015-03-04T22:15:40.042Z,100562
2015-03-04T22:15:58.368Z,100551
2015-03-04T22:16:16.696Z,100568
2015-03-04T22:16:35.022Z,100571
2015-03-04T22:16:52.699Z,100556
2015-03-04T22:17:11.030Z,100556
2015-03-04T22:17:29.364Z,100562
2015-03-04T22:17:47.692Z,100545
2015-03-04T22:18:06.031Z,100553
2015-03-04T22:18:24.362Z,100556
2015-03-04T22:18:42.686Z,100568
2015-03-04T22:19:01.016Z,100568
2015-03-04T22:19:19.358Z,100568
2015-03-04T22:19:37.036Z,100562
2015-03-04T22:19:55.502Z,100565
2015-03-04T22:20:13.178Z,100568
2015-03-04T22:20:31.508Z,100565
2015-03-04T22:20:49.840Z,100556
2015-03-04T22:21:08.173Z,100559
2015-03-04T22:21:26.506Z,100565
2015-03-04T22:21:44.835Z,100565
2015-03-04T22:22:03.165Z,100562
2015-03-04T22:22:20.837Z,100553
2015-03-04T22:22:39.171Z,100548
2015-03-04T22:22:57.502Z,100559
2015-03-04T22:23:15.826Z,100553
2015-03-04T22:23:34.151Z,100556
2015-03-04T22:23:52.484Z,100556
2015-03-04T22:24:10.167Z,100559
2015-03-04T22:24:27.838Z,100556
2015-03-04T22:24:46.173Z,100548
2015-03-04T22:25:04.504Z,100548
2015-03-04T22:25:22.837Z,100562
2015-03-04T22:25:41.166Z,100562
2015-03-04T22:25:59.491Z,100559
2015-03-04T22:26:17.825Z,100542
2015-03-04T22:26:36.151Z,100556
2015-03-04T22:26:53.826Z,100545
2015-03-04T22:27:12.159Z,100548
2015-03-04T22:27:29.829Z,100556
2015-03-04T22:27:48.161Z,100548
2015-03-04T22:28:06.492Z,100559
2015-03-04T22:28:24.822Z,100548
2015-03-04T22:28:43.150Z,100553
2015-03-04T22:29:00.824Z,100559
2015-03-04T22:29:19.158Z,100562
2015-03-04T22:29:37.487Z,100568
2015-03-04T22:29:55.822Z,100562
2015-03-04T22:30:14.153Z,100571
2015-03-04T22:30:32.482Z,100568
2015-03-04T22:30:50.809Z,100553
2015-03-04T22:31:09.138Z,100574
2015-03-04T22:31:27.466Z,100577
2015-03-04T22:31:45.140Z,100565
2015-03-04T22:32:03.472Z,100568
2015-03-04T22:32:21.802Z,100562
2015-03-04T22:32:40.134Z,100562
2015-03-04T22:32:57.815Z,100562
2015-03-04T22:33:15.482Z,100568
2015-03-04T22:33:33.810Z,100562
2015-03-04T22:33:52.149Z,100565
2015-03-04T22:34:10.467Z,100556
2015-03-04T22:34:28.794Z,100568
2015-03-04T22:34:47.124Z,100556
2015-03-04T22:35:05.455Z,100562
2015-03-04T22:35:23.784Z,100571
2015-03-04T22:35:41.958Z,100568
2015-03-04T22:35:59.637Z,100568
2015-03-04T22:36:17.963Z,100571
2015-03-04T22:36:36.292Z,100571
2015-03-04T22:36:54.618Z,100577
2015-03-04T22:37:12.952Z,100571
2015-03-04T22:37:31.286Z,100574
2015-03-04T22:37:49.616Z,100596
2015-03-04T22:38:07.943Z,100577
2015-03-04T22:38:26.402Z,100580
2015-03-04T22:38:44.731Z,100577
2015-03-04T22:39:02.412Z,100593
2015-03-04T22:39:20.094Z,100574
2015-03-04T22:39:38.426Z,100582
2015-03-04T22:39:56.100Z,100580
2015-03-04T22:40:14.430Z,100593